Time;durP1;ratioP1;P1;durP2;ratioP2;P2;SDS_P1;SDS_P2;PMS_P1;PMS_P2;Temp;Humidity;BMP_temperature;BMP_pressure;BME280_temperature;BME280_humidity;BME280_pressure;Samples;Min_cycle;Max_cycle;Signal;HPM_P1;HPM_P2
2022/06/07 00:01:27;;;;;;;0.53;0.53;;;;;17.10;98290.00;;;;5095703;28;20198;-72
2022/06/07 00:03:57;;;;;;;0.50;0.50;;;;;17.10;98291.00;;;;5095474;28;20230;-72
2022/06/07 00:06:23;;;;;;;0.57;0.57;;;;;17.20;98295.00;;;;5095560;28;20246;-72
2022/06/07 00:08:51;;;;;;;0.40;0.40;;;;;17.30;98297.00;;;;5095633;28;20677;-72
2022/06/07 00:11:18;;;;;;;0.50;0.50;;;;;17.30;98297.00;;;;5095380;28;20237;-72
2022/06/07 00:13:46;;;;;;;0.50;0.50;;;;;17.20;98290.00;;;;5095416;28;20209;-72
2022/06/07 00:16:14;;;;;;;0.50;0.50;;;;;17.20;98289.00;;;;5077451;28;20227;-72
2022/06/07 00:18:40;;;;;;;0.50;0.50;;;;;17.20;98291.00;;;;5095531;28;20243;-71
2022/06/07 00:21:07;;;;;;;0.80;0.80;;;;;17.40;98295.00;;;;5095262;28;20693;-71
2022/06/07 00:23:34;;;;;;;0.60;0.60;;;;;17.50;98297.00;;;;5094459;28;20263;-72
2022/06/07 00:26:02;;;;;;;0.70;0.70;;;;;17.40;98293.00;;;;5095180;28;20194;-72
2022/06/07 00:28:32;;;;;;;0.40;0.40;;;;;17.40;98296.00;;;;5095234;28;20195;-72
2022/06/07 00:30:59;;;;;;;0.40;0.40;;;;;17.40;98292.00;;;;5095043;28;20222;-72
2022/06/07 00:33:27;;;;;;;1.70;0.60;;;;;17.40;98293.00;;;;5095093;28;20202;-71
2022/06/07 00:35:54;;;;;;;6.13;1.13;;;;;17.20;98290.00;;;;5095135;28;20627;-72
2022/06/07 00:38:21;;;;;;;0.40;0.40;;;;;17.20;98296.00;;;;5095135;28;20354;-71
2022/06/07 00:40:48;;;;;;;0.40;0.40;;;;;17.30;98305.00;;;;5077142;28;20222;-72
2022/06/07 00:43:15;;;;;;;0.53;0.53;;;;;17.20;98304.00;;;;5095212;28;20222;-71
2022/06/07 00:45:42;;;;;;;0.50;0.50;;;;;17.30;98297.00;;;;5095041;28;20206;-71
2022/06/07 00:48:09;;;;;;;0.50;0.50;;;;;17.30;98302.00;;;;5094857;28;20527;-72
2022/06/07 00:50:43;;;;;;;0.50;0.50;;;;;17.30;98295.00;;;;5077161;28;20229;-72
2022/06/07 00:53:23;;;;;;;0.50;0.50;;;;;17.20;98300.00;;;;5095068;28;20483;-72
2022/06/07 00:55:50;;;;;;;0.50;0.50;;;;;17.20;98295.00;;;;5094800;28;20242;-72
2022/06/07 00:58:17;;;;;;;0.60;0.60;;;;;17.20;98291.00;;;;5094799;28;20208;-72
2022/06/07 01:00:44;;;;;;;0.30;0.30;;;;;17.10;98292.00;;;;5077005;28;20235;-72
2022/06/07 01:03:11;;;;;;;0.37;0.37;;;;;17.00;98289.00;;;;5094743;28;20220;-72
2022/06/07 01:05:39;;;;;;;0.50;0.50;;;;;17.10;98299.00;;;;5076814;28;20657;-72
2022/06/07 01:10:58;;;;;;;0.33;0.33;;;;;16.90;98295.00;;;;5020851;28;20240;-72
2022/06/07 01:13:31;;;;;;;0.40;0.40;;;;;16.80;98283.00;;;;5076982;28;20247;-71
2022/06/07 01:16:01;;;;;;;0.60;0.60;;;;;16.70;98282.00;;;;5094524;28;20234;-72
2022/06/07 01:18:28;;;;;;;0.40;0.40;;;;;16.60;98284.00;;;;5094388;28;20271;-72
2022/06/07 01:21:30;;;;;;;0.73;0.73;;;;;16.70;98279.00;;;;5094415;28;20209;-72
2022/06/07 01:23:57;;;;;;;0.73;0.73;;;;;16.60;98289.00;;;;5012685;28;20260;-72
2022/06/07 01:26:24;;;;;;;0.40;0.40;;;;;16.60;98289.00;;;;5078266;28;20247;-72
2022/06/07 01:28:51;;;;;;;0.73;0.73;;;;;16.60;98282.00;;;;5094180;28;20219;-72
2022/06/07 01:31:18;;;;;;;0.50;0.50;;;;;16.50;98288.00;;;;5094217;28;20315;-72
2022/06/07 01:33:47;;;;;;;0.50;0.50;;;;;16.40;98288.00;;;;5094048;28;20302;-72
2022/06/07 01:36:17;;;;;;;0.50;0.50;;;;;16.40;98286.00;;;;5094168;28;20561;-72
2022/06/07 01:41:53;;;;;;;0.50;0.50;;;;;16.40;98293.00;;;;5094133;28;20191;-71
2022/06/07 01:44:19;;;;;;;0.43;0.43;;;;;16.20;98293.00;;;;5093919;28;20203;-72
2022/06/07 01:46:46;;;;;;;0.80;0.80;;;;;16.20;98295.00;;;;5094040;28;20190;-72
2022/06/07 01:49:14;;;;;;;0.40;0.40;;;;;16.10;98291.00;;;;5076300;28;20230;-72
2022/06/07 01:51:41;;;;;;;0.50;0.50;;;;;16.10;98281.00;;;;5093792;28;20227;-72
2022/06/07 01:54:09;;;;;;;0.73;0.73;;;;;16.10;98281.00;;;;5093945;28;20273;-72
2022/06/07 01:56:36;;;;;;;0.50;0.50;;;;;16.20;98282.00;;;;5076130;28;20254;-72
2022/06/07 01:59:03;;;;;;;0.60;0.60;;;;;16.30;98280.00;;;;5094035;28;20267;-72
2022/06/07 02:01:30;;;;;;;0.50;0.50;;;;;16.40;98269.00;;;;5076167;28;20206;-71
2022/06/07 02:03:57;;;;;;;0.50;0.50;;;;;16.30;98270.00;;;;5093897;28;20195;-72
2022/06/07 02:06:24;;;;;;;0.40;0.40;;;;;16.10;98271.00;;;;5093702;28;20219;-71
2022/06/07 02:08:51;;;;;;;0.60;0.60;;;;;16.10;98282.00;;;;5093595;28;20238;-72
2022/06/07 02:11:22;;;;;;;0.50;0.50;;;;;16.10;98268.00;;;;5093591;28;20645;-72
2022/06/07 02:13:49;;;;;;;0.50;0.50;;;;;15.90;98269.00;;;;5093676;28;20214;-72
2022/06/07 02:16:17;;;;;;;0.40;0.40;;;;;15.90;98264.00;;;;5075839;28;20207;-71
2022/06/07 02:18:45;;;;;;;0.40;0.40;;;;;16.00;98264.00;;;;5075879;28;20548;-71
2022/06/07 02:21:15;;;;;;;0.80;0.80;;;;;16.00;98260.00;;;;5093612;28;20272;-72
2022/06/07 02:23:42;;;;;;;0.50;0.50;;;;;15.90;98252.00;;;;5093459;28;20274;-72
2022/06/07 02:26:14;;;;;;;0.47;0.47;;;;;15.90;98251.00;;;;5093529;28;20202;-72
2022/06/07 02:28:45;;;;;;;0.50;0.50;;;;;16.00;98253.00;;;;5093530;28;20202;-72
2022/06/07 02:31:12;;;;;;;0.40;0.40;;;;;16.00;98248.00;;;;5093262;28;20222;-72
2022/06/07 02:33:41;;;;;;;0.40;0.40;;;;;15.90;98239.00;;;;5093615;28;20186;-72
2022/06/07 02:36:09;;;;;;;0.53;0.53;;;;;15.90;98244.00;;;;5093432;28;20253;-72
2022/06/07 02:38:39;;;;;;;0.50;0.50;;;;;15.80;98238.00;;;;5093291;28;20199;-72
2022/06/07 02:41:09;;;;;;;0.60;0.60;;;;;15.80;98237.00;;;;5093401;28;20230;-71
2022/06/07 02:43:38;;;;;;;0.77;0.77;;;;;15.80;98240.00;;;;5093352;28;20568;-72
2022/06/07 02:46:05;;;;;;;0.50;0.50;;;;;15.70;98235.00;;;;5094116;28;20194;-72
2022/06/07 02:48:32;;;;;;;0.40;0.40;;;;;15.80;98245.00;;;;5096855;28;20539;-72
2022/06/07 02:50:59;;;;;;;0.53;0.53;;;;;15.80;98228.00;;;;5096774;28;20218;-71
2022/06/07 02:53:29;;;;;;;0.40;0.40;;;;;15.90;98226.00;;;;5096659;28;20311;-72
2022/06/07 02:55:56;;;;;;;0.50;0.50;;;;;15.70;98226.00;;;;5096648;28;20205;-72
2022/06/07 02:58:23;;;;;;;0.60;0.60;;;;;15.80;98219.00;;;;5096566;28;20297;-72
2022/06/07 03:00:50;;;;;;;0.40;0.40;;;;;15.80;98223.00;;;;5096619;28;20235;-72
2022/06/07 03:03:20;;;;;;;3.20;1.30;;;;;15.90;98220.00;;;;5096528;28;20205;-72
2022/06/07 03:05:46;;;;;;;0.40;0.40;;;;;15.90;98224.00;;;;5096641;28;20202;-72
2022/06/07 03:08:15;;;;;;;0.40;0.40;;;;;16.00;98221.00;;;;5096532;28;20191;-72
2022/06/07 03:10:42;;;;;;;0.40;0.40;;;;;16.00;98222.00;;;;5096459;28;20218;-72
2022/06/07 03:13:09;;;;;;;0.53;0.53;;;;;16.00;98222.00;;;;5096505;28;20223;-72
2022/06/07 03:15:36;;;;;;;0.50;0.50;;;;;15.90;98225.00;;;;5096313;28;20688;-72
2022/06/07 03:18:03;;;;;;;0.60;0.60;;;;;15.80;98225.00;;;;5096440;28;20202;-72
2022/06/07 03:20:31;;;;;;;0.83;0.83;;;;;15.80;98221.00;;;;5098382;28;20222;-73
2022/06/07 03:23:00;;;;;;;0.60;0.60;;;;;15.80;98223.00;;;;5096894;28;20222;-72
2022/06/07 03:25:27;;;;;;;0.50;0.50;;;;;15.80;98223.00;;;;5096263;28;20183;-72
2022/06/07 03:27:54;;;;;;;0.40;0.40;;;;;15.80;98219.00;;;;5096210;28;20224;-72
2022/06/07 03:30:21;;;;;;;0.50;0.50;;;;;15.80;98219.00;;;;5096083;28;20657;-72
2022/06/07 03:32:51;;;;;;;0.50;0.50;;;;;15.80;98216.00;;;;5095987;28;20229;-72
2022/06/07 03:35:18;;;;;;;0.50;0.50;;;;;15.80;98215.00;;;;5078254;28;20407;-72
2022/06/07 03:37:45;;;;;;;0.40;0.40;;;;;15.80;98223.00;;;;5095965;28;20684;-72
2022/06/07 03:40:14;;;;;;;0.50;0.50;;;;;15.80;98217.00;;;;5095966;28;20641;-72
2022/06/07 03:42:41;;;;;;;0.50;0.50;;;;;15.90;98216.00;;;;5095794;28;20187;-72
2022/06/07 03:45:08;;;;;;;0.50;0.50;;;;;15.90;98216.00;;;;5078152;28;20203;-72
2022/06/07 03:47:37;;;;;;;0.43;0.43;;;;;16.00;98220.00;;;;5078074;28;20323;-71
2022/06/07 03:50:05;;;;;;;0.50;0.50;;;;;16.00;98215.00;;;;5095707;28;20202;-72
2022/06/07 03:52:32;;;;;;;0.50;0.50;;;;;15.90;98210.00;;;;5095808;28;20214;-72
2022/06/07 03:54:59;;;;;;;0.70;0.70;;;;;15.90;98204.00;;;;5095745;28;20230;-72
2022/06/07 03:57:26;;;;;;;0.60;0.60;;;;;16.00;98212.00;;;;5094637;28;20513;-73
2022/06/07 03:59:53;;;;;;;0.50;0.50;;;;;16.00;98205.00;;;;5095473;28;20223;-72
2022/06/07 04:02:19;;;;;;;0.50;0.50;;;;;15.90;98209.00;;;;5095812;28;20205;-72
2022/06/07 04:04:46;;;;;;;0.40;0.40;;;;;15.90;98221.00;;;;5095745;28;20530;-71
2022/06/07 04:09:59;;;;;;;0.50;0.50;;;;;15.90;98223.00;;;;5077690;28;20305;-72
2022/06/07 04:12:26;;;;;;;0.70;0.70;;;;;15.90;98220.00;;;;5095366;28;20215;-72
2022/06/07 04:14:53;;;;;;;0.70;0.70;;;;;16.00;98224.00;;;;5095426;28;20248;-72
2022/06/07 04:17:19;;;;;;;0.50;0.50;;;;;16.00;98223.00;;;;5095343;28;20221;-72
2022/06/07 04:19:46;;;;;;;0.50;0.50;;;;;16.00;98226.00;;;;5095485;28;20191;-72
2022/06/07 04:22:13;;;;;;;0.40;0.40;;;;;16.00;98232.00;;;;5095260;28;20226;-71
2022/06/07 04:24:40;;;;;;;0.40;0.40;;;;;16.10;98228.00;;;;5095340;28;20194;-72
2022/06/07 04:27:08;;;;;;;0.70;0.70;;;;;16.10;98237.00;;;;5095266;28;20673;-71
2022/06/07 04:29:34;;;;;;;0.50;0.50;;;;;16.20;98241.00;;;;5095331;28;20195;-71
2022/06/07 04:32:01;;;;;;;0.50;0.50;;;;;16.00;98241.00;;;;5095215;28;20254;-72
2022/06/07 04:34:28;;;;;;;0.50;0.50;;;;;16.00;98228.00;;;;5095072;28;20292;-70
2022/06/07 04:36:56;;;;;;;0.50;0.50;;;;;16.00;98235.00;;;;5095175;28;20654;-71
2022/06/07 04:39:22;;;;;;;0.47;0.47;;;;;15.90;98234.00;;;;5095069;28;20219;-72
2022/06/07 04:41:49;;;;;;;0.40;0.40;;;;;16.00;98233.00;;;;5095153;28;20198;-72
2022/06/07 04:44:17;;;;;;;0.50;0.50;;;;;16.10;98231.00;;;;5095272;28;20199;-72
2022/06/07 04:46:44;;;;;;;1.07;1.07;;;;;16.20;98235.00;;;;5095003;28;20241;-72
2022/06/07 04:49:13;;;;;;;0.50;0.50;;;;;16.10;98243.00;;;;5094718;28;20186;-72
2022/06/07 04:51:40;;;;;;;0.60;0.60;;;;;16.10;98231.00;;;;5094744;28;20279;-72
2022/06/07 04:54:07;;;;;;;0.50;0.50;;;;;16.20;98248.00;;;;5094958;28;20204;-72
2022/06/07 04:56:35;;;;;;;0.60;0.60;;;;;16.10;98236.00;;;;5094773;28;20233;-72
2022/06/07 04:59:04;;;;;;;0.50;0.50;;;;;16.20;98245.00;;;;5094760;28;20341;-72
2022/06/07 05:01:36;;;;;;;0.60;0.60;;;;;16.30;98247.00;;;;5094696;28;20250;-72
2022/06/07 05:04:04;;;;;;;0.40;0.40;;;;;16.30;98254.00;;;;5095803;28;20501;-72
2022/06/07 05:06:33;;;;;;;0.50;0.50;;;;;16.30;98250.00;;;;5094931;28;20243;-72
2022/06/07 05:09:02;;;;;;;0.67;0.67;;;;;16.40;98245.00;;;;5094388;28;20191;-72
2022/06/07 05:11:30;;;;;;;0.83;0.83;;;;;16.50;98255.00;;;;5076476;28;20559;-72
2022/06/07 05:13:58;;;;;;;0.60;0.60;;;;;16.50;98259.00;;;;5094392;28;20746;-72
2022/06/07 05:16:26;;;;;;;0.40;0.40;;;;;16.60;98266.00;;;;5094419;28;20629;-72
2022/06/07 05:18:55;;;;;;;0.40;0.40;;;;;16.60;98259.00;;;;5094381;28;20223;-73
2022/06/07 05:21:26;;;;;;;0.60;0.60;;;;;16.70;98265.00;;;;5094496;28;20199;-71
2022/06/07 05:23:53;;;;;;;0.60;0.60;;;;;16.70;98266.00;;;;5076432;28;20222;-72
2022/06/07 05:26:26;;;;;;;0.40;0.40;;;;;16.80;98271.00;;;;5094443;28;20198;-71
2022/06/07 05:28:54;;;;;;;0.50;0.50;;;;;16.90;98266.00;;;;5094226;28;20199;-72
2022/06/07 05:31:20;;;;;;;0.40;0.40;;;;;17.10;98268.00;;;;5094038;28;20228;-72
2022/06/07 05:33:47;;;;;;;0.43;0.43;;;;;17.10;98262.00;;;;5094266;28;20195;-72
2022/06/07 05:36:17;;;;;;;0.70;0.67;;;;;17.10;98264.00;;;;5094212;28;20219;-71
2022/06/07 05:38:44;;;;;;;0.40;0.40;;;;;17.20;98271.00;;;;5094207;28;20190;-71
2022/06/07 05:41:17;;;;;;;0.67;0.67;;;;;17.50;98283.00;;;;5094047;28;20222;-71
2022/06/07 05:43:44;;;;;;;0.87;0.87;;;;;17.50;98287.00;;;;5094062;28;20206;-71
2022/06/07 05:46:10;;;;;;;0.40;0.40;;;;;17.30;98281.00;;;;5093933;28;20206;-72
2022/06/07 05:48:37;;;;;;;0.50;0.50;;;;;17.30;98282.00;;;;5094055;28;20698;-71
2022/06/07 05:51:05;;;;;;;0.43;0.43;;;;;17.60;98272.00;;;;5093895;28;20211;-71
2022/06/07 05:53:32;;;;;;;0.60;0.60;;;;;17.50;98269.00;;;;5093931;28;20219;-71
2022/06/07 05:56:06;;;;;;;0.57;0.57;;;;;17.50;98269.00;;;;5093958;28;20301;-72
2022/06/07 05:58:36;;;;;;;3.70;0.80;;;;;17.70;98279.00;;;;5093731;28;20233;-71
2022/06/07 06:01:04;;;;;;;0.70;0.70;;;;;17.40;98267.00;;;;5093792;28;20191;-71
2022/06/07 06:03:31;;;;;;;0.40;0.40;;;;;17.40;98272.00;;;;5093677;28;20673;-71
2022/06/07 06:05:58;;;;;;;0.40;0.40;;;;;17.60;98279.00;;;;5093864;28;20391;-72
2022/06/07 06:11:13;;;;;;;5.80;1.43;;;;;17.90;98283.00;;;;5093567;28;20214;-72
2022/06/07 06:13:41;;;;;;;0.60;0.60;;;;;17.90;98287.00;;;;5093697;28;20225;-72
2022/06/07 06:16:11;;;;;;;0.70;0.70;;;;;17.90;98283.00;;;;5093686;28;20226;-72
2022/06/07 06:18:40;;;;;;;0.37;0.37;;;;;17.90;98288.00;;;;5093732;28;20262;-70
2022/06/07 06:21:10;;;;;;;0.40;0.40;;;;;17.90;98294.00;;;;5076541;28;20225;-72
2022/06/07 06:23:37;;;;;;;0.40;0.40;;;;;17.80;98284.00;;;;5097443;28;20218;-71
2022/06/07 06:26:08;;;;;;;0.40;0.40;;;;;17.90;98285.00;;;;5097135;28;20232;-70
2022/06/07 06:28:35;;;;;;;0.60;0.60;;;;;18.00;98280.00;;;;5079717;28;20213;-71
2022/06/07 06:31:03;;;;;;;0.43;0.43;;;;;18.10;98285.00;;;;5079177;28;20233;-71
2022/06/07 06:33:30;;;;;;;1.70;1.03;;;;;18.20;98278.00;;;;5079617;28;20206;-70
2022/06/07 06:35:57;;;;;;;0.43;0.43;;;;;18.30;98290.00;;;;5097010;28;20641;-71
2022/06/07 06:38:26;;;;;;;0.50;0.50;;;;;18.20;98285.00;;;;5096967;28;20246;-72
2022/06/07 06:40:52;;;;;;;0.40;0.40;;;;;17.90;98286.00;;;;5097004;28;20297;-74
2022/06/07 06:43:21;;;;;;;0.43;0.43;;;;;18.00;98289.00;;;;5096890;28;20273;-75
2022/06/07 06:45:49;;;;;;;0.40;0.40;;;;;18.00;98286.00;;;;5097010;28;20222;-73
2022/06/07 06:48:17;;;;;;;0.57;0.57;;;;;18.10;98293.00;;;;5079294;28;20225;-73
2022/06/07 06:50:44;;;;;;;0.40;0.40;;;;;18.30;98287.00;;;;5096736;28;20222;-73
2022/06/07 06:53:11;;;;;;;3.93;1.37;;;;;18.20;98295.00;;;;5096846;28;20190;-74
2022/06/07 06:55:43;;;;;;;0.60;0.60;;;;;18.40;98291.00;;;;5098444;28;20281;-74
2022/06/07 06:58:10;;;;;;;0.40;0.40;;;;;18.60;98291.00;;;;5096864;28;20265;-75
2022/06/07 07:00:37;;;;;;;0.40;0.40;;;;;18.60;98288.00;;;;5078826;28;20668;-74
2022/06/07 07:03:05;;;;;;;1.03;0.87;;;;;18.60;98284.00;;;;5096667;28;20194;-74
2022/06/07 07:05:35;;;;;;;0.40;0.40;;;;;18.80;98283.00;;;;5096590;28;20194;-74
2022/06/07 07:08:02;;;;;;;0.50;0.50;;;;;19.00;98274.00;;;;5078666;28;20213;-74
2022/06/07 07:10:28;;;;;;;0.40;0.40;;;;;19.00;98281.00;;;;5096409;28;20361;-74
2022/06/07 07:12:55;;;;;;;0.40;0.40;;;;;19.10;98280.00;;;;5078624;28;20202;-72
2022/06/07 07:15:22;;;;;;;0.40;0.40;;;;;19.20;98282.00;;;;5096421;28;20191;-73
2022/06/07 07:17:49;;;;;;;0.60;0.60;;;;;19.40;98274.00;;;;5096261;28;20665;-72
2022/06/07 07:20:17;;;;;;;0.50;0.50;;;;;19.30;98285.00;;;;5078764;28;20217;-74
2022/06/07 07:22:43;;;;;;;0.47;0.47;;;;;19.40;98281.00;;;;5096219;28;20222;-74
2022/06/07 07:25:11;;;;;;;0.60;0.60;;;;;19.50;98275.00;;;;5096279;28;20206;-73
2022/06/07 07:27:38;;;;;;;0.43;0.43;;;;;19.60;98283.00;;;;5078549;28;20198;-73
2022/06/07 07:30:06;;;;;;;0.57;0.57;;;;;19.60;98290.00;;;;5096159;28;20371;-73
2022/06/07 07:32:33;;;;;;;0.40;0.40;;;;;19.70;98285.00;;;;5095710;28;20218;-74
2022/06/07 07:35:03;;;;;;;0.40;0.40;;;;;19.90;98275.00;;;;5078171;28;20194;-73
2022/06/07 07:37:32;;;;;;;0.40;0.40;;;;;20.00;98281.00;;;;5096063;28;20598;-73
2022/06/07 07:40:01;;;;;;;0.40;0.40;;;;;20.20;98282.00;;;;5096294;28;20202;-73
2022/06/07 07:42:28;;;;;;;0.30;0.30;;;;;20.20;98285.00;;;;5095936;28;20311;-74
2022/06/07 07:44:54;;;;;;;0.50;0.50;;;;;20.20;98279.00;;;;5095913;28;20344;-73
2022/06/07 07:47:22;;;;;;;0.50;0.50;;;;;20.00;98286.00;;;;5095957;28;20538;-73
2022/06/07 07:49:48;;;;;;;0.60;0.60;;;20.40;45.50;20.10;98282.00;;;;5095789;28;20225;-74
2022/06/07 07:52:18;;;;;;;0.37;0.37;;;20.50;45.30;20.20;98279.00;;;;5095784;28;20261;-72
2022/06/07 07:54:46;;;;;;;0.50;0.50;;;20.60;44.90;20.10;98279.00;;;;5095903;28;20195;-73
2022/06/07 07:57:13;;;;;;;0.43;0.43;;;20.60;45.20;20.10;98269.00;;;;5095676;28;20227;-72
2022/06/07 07:59:39;;;;;;;0.40;0.40;;;20.50;44.50;20.10;98274.00;;;;5095785;28;20210;-73
2022/06/07 08:02:06;;;;;;;0.30;0.30;;;20.50;45.40;20.20;98280.00;;;;5095660;28;20275;-72
2022/06/07 08:04:32;;;;;;;0.50;0.50;;;20.60;46.90;20.20;98274.00;;;;5095630;28;20171;-72
2022/06/07 08:07:01;;;;;;;0.43;0.43;;;20.60;46.00;20.30;98282.00;;;;5095542;28;20214;-74
2022/06/07 08:09:27;;;;;;;0.30;0.30;;;20.70;46.40;20.40;98275.00;;;;5095801;28;20654;-74
2022/06/07 08:11:55;;;;;;;0.60;0.60;;;20.70;46.00;20.40;98275.00;;;;5077912;28;20229;-75
2022/06/07 08:14:23;;;;;;;0.40;0.40;;;20.80;46.10;20.40;98274.00;;;;5095728;28;20253;-74
2022/06/07 08:16:50;;;;;;;0.50;0.50;;;20.80;46.40;19.90;98278.00;;;;5095460;28;20228;-74
2022/06/07 08:19:18;;;;;;;0.80;0.80;;;20.50;47.70;19.90;98275.00;;;;5095497;28;20194;-73
2022/06/07 08:21:45;;;;;;;0.50;0.50;;;20.40;48.30;20.00;98279.00;;;;5095306;28;20661;-73
2022/06/07 08:24:14;;;;;;;0.43;0.43;;;20.50;47.50;20.00;98279.00;;;;5095393;28;20215;-73
2022/06/07 08:26:41;;;;;;;0.60;0.60;;;20.40;47.40;20.00;98279.00;;;;5095335;28;20233;-71
2022/06/07 08:29:09;;;;;;;0.43;0.43;;;20.40;47.40;20.00;98282.00;;;;5095250;28;20302;-74
2022/06/07 08:31:35;;;;;;;0.50;0.50;;;20.50;47.70;20.10;98272.00;;;;5077472;28;20236;-74
2022/06/07 08:39:35;;;;;;;0.40;0.40;;;20.20;47.80;19.60;98270.00;;;;5079019;28;20213;-74
2022/06/07 08:42:14;;;;;;;0.40;0.40;;;20.10;48.60;19.60;98280.00;;;;5095056;28;20207;-74
2022/06/07 08:44:48;;;;;;;0.40;0.40;;;20.10;49.30;19.90;98280.00;;;;5094187;28;20208;-73
2022/06/07 08:47:23;;;;;;;0.40;0.40;;;20.30;49.10;19.90;98272.00;;;;5094873;28;20266;-73
2022/06/07 08:49:51;;;;;;;0.33;0.33;;;20.20;47.70;19.80;98280.00;;;;5094965;28;20190;-74
2022/06/07 08:52:26;;;;;;;0.43;0.43;;;20.20;47.80;19.80;98282.00;;;;5094829;28;20307;-74
2022/06/07 08:54:55;;;;;;;0.77;0.77;;;20.10;47.20;19.90;98278.00;;;;5094942;28;20200;-74
2022/06/07 08:57:26;;;;;;;0.50;0.50;;;20.30;46.10;19.90;98270.00;;;;5094840;28;20638;-73
2022/06/07 08:59:59;;;;;;;0.33;0.33;;;20.40;46.60;20.10;98266.00;;;;5094686;28;20245;-74
2022/06/07 09:02:49;;;;;;;0.77;0.77;;;20.40;46.20;19.90;98266.00;;;;5094813;28;20199;-72
2022/06/07 09:05:19;;;;;;;0.40;0.40;;;20.40;45.50;19.90;98263.00;;;;5094636;28;20179;-73
2022/06/07 09:07:46;;;;;;;0.50;0.50;;;20.30;45.10;19.90;98254.00;;;;5094581;28;20342;-73
2022/06/07 09:13:06;;;;;;;0.37;0.37;;;20.50;43.70;20.30;98250.00;;;;5094522;28;20232;-74
2022/06/07 09:15:36;;;;;;;0.40;0.40;;;20.60;44.20;20.60;98243.00;;;;5094423;28;20203;-72
2022/06/07 09:18:06;;;;;;;0.47;0.47;;;20.90;43.00;20.50;98248.00;;;;5076916;28;20533;-73
2022/06/07 09:20:39;;;;;;;0.43;0.43;;;20.90;41.70;20.60;98243.00;;;;5094362;28;20194;-74
2022/06/07 09:23:15;;;;;;;0.50;0.50;;;21.00;41.20;20.90;98245.00;;;;5094484;28;20190;-76
2022/06/07 09:25:48;;;;;;;0.30;0.30;;;21.20;41.10;21.10;98230.00;;;;5094322;28;20222;-75
2022/06/07 09:28:23;;;;;;;0.30;0.30;;;21.30;41.10;21.00;98231.00;;;;5076438;28;20677;-74
2022/06/07 09:31:00;;;;;;;0.40;0.40;;;21.30;39.50;20.90;98222.00;;;;5094175;28;20236;-73
2022/06/07 09:33:31;;;;;;;0.40;0.40;;;21.30;40.30;21.40;98220.00;;;;5094497;28;20254;-73
2022/06/07 09:36:08;;;;;;;0.40;0.40;;;21.50;41.30;21.40;98234.00;;;;5094198;28;20222;-75
2022/06/07 09:38:46;;;;;;;0.70;0.70;;;21.70;40.00;21.60;98223.00;;;;5094171;28;20262;-75
2022/06/07 09:41:37;;;;;;;0.30;0.30;;;21.80;40.40;21.80;98228.00;;;;5094163;28;20603;-74
2022/06/07 09:44:14;;;;;;;0.60;0.60;;;22.10;39.50;22.00;98220.00;;;;5094026;28;20211;-74
2022/06/07 09:46:43;;;;;;;0.53;0.53;;;22.20;38.40;22.00;98218.00;;;;5094186;28;20202;-75
2022/06/07 09:49:27;;;;;;;0.38;0.38;;;22.30;38.00;22.00;98225.00;;;;5093917;28;20206;-74
2022/06/07 09:51:54;;;;;;;0.40;0.40;;;22.30;37.50;21.80;98220.00;;;;5093859;28;20321;-74
2022/06/07 09:54:22;;;;;;;0.40;0.40;;;;;21.30;98218.00;;;;5075953;28;20309;-73
2022/06/07 09:57:01;;;;;;;0.40;0.40;;;;;21.70;98221.00;;;;5093843;28;20388;-74
2022/06/07 09:59:46;;;;;;;0.50;0.50;;;;;21.70;98217.00;;;;5093763;28;20224;-75
2022/06/07 10:02:42;;;;;;;0.70;0.70;;;;;21.50;98216.00;;;;5093694;28;20210;-74
2022/06/07 10:05:21;;;;;;;0.50;0.50;;;;;21.90;98212.00;;;;5093629;28;20554;-76
2022/06/07 10:07:57;;;;;;;0.40;0.40;;;;;21.60;98215.00;;;;5093669;28;20213;-74
2022/06/07 10:10:30;;;;;;;0.40;0.40;;;;;21.50;98213.00;;;;5093492;28;20537;-74
2022/06/07 10:13:13;;;;;;;0.60;0.60;;;;;21.70;98209.00;;;;5093669;28;20202;-73
2022/06/07 10:15:47;;;;;;;0.40;0.40;;;;;21.70;98205.00;;;;5093982;28;20269;-73
2022/06/07 10:18:22;;;;;;;0.40;0.40;;;;;21.50;98210.00;;;;5096319;28;20202;-74
2022/06/07 10:21:08;;;;;;;0.40;0.40;;;;;21.40;98204.00;;;;5094012;28;20633;-73
2022/06/07 10:23:52;;;;;;;0.40;0.40;;;;;21.50;98207.00;;;;5093699;28;20246;-73
2022/06/07 10:26:31;;;;;;;0.60;0.60;;;;;21.60;98203.00;;;;5093530;28;20654;-73
2022/06/07 10:29:20;;;;;;;0.63;0.63;;;;;21.80;98200.00;;;;5093478;28;20214;-74
2022/06/07 10:31:55;;;;;;;1.07;0.57;;;;;21.70;98202.00;;;;5093408;28;20367;-73
2022/06/07 10:34:33;;;;;;;0.30;0.30;;;;;21.80;98201.00;;;;5093293;28;20257;-77
2022/06/07 10:37:08;;;;;;;0.40;0.40;;;;;21.70;98205.00;;;;5093332;28;20522;-75
2022/06/07 10:39:51;;;;;;;0.38;0.38;;;;;21.80;98203.00;;;;5093285;28;20209;-75
2022/06/07 10:42:28;;;;;;;0.90;0.80;;;;;21.90;98198.00;;;;5093345;28;20187;-74
2022/06/07 10:45:03;;;;;;;0.40;0.40;;;;;22.10;98185.00;;;;5093280;28;20298;-76
2022/06/07 10:47:34;;;;;;;1.25;0.63;;;;;22.70;98180.00;;;;5075496;28;20206;-73
2022/06/07 10:50:06;;;;;;;0.50;0.50;;;;;23.00;98174.00;;;;5093361;28;20195;-75
2022/06/07 10:52:38;;;;;;;0.38;0.38;;;;;23.10;98188.00;;;;5093035;28;20234;-75
2022/06/07 10:55:15;;;;;;;0.40;0.40;;;;;23.00;98182.00;;;;5093192;28;20240;-75
2022/06/07 10:57:55;;;;;;;0.57;0.57;;;;;23.00;98186.00;;;;5093081;28;20214;-74
2022/06/07 11:00:36;;;;;;;0.40;0.40;;;;;22.90;98191.00;;;;5093088;28;20228;-74
2022/06/07 11:03:29;;;;;;;0.77;0.77;;;;;22.70;98191.00;;;;5093022;28;20642;-75
2022/06/07 11:09:19;;;;;;;0.40;0.40;;;;;22.00;98191.00;;;;5096237;28;20630;-78
2022/06/07 11:11:48;;;;;;;0.55;0.55;;;;;21.80;98192.00;;;;5096444;28;20658;-76
2022/06/07 11:14:41;;;;;;;0.85;0.85;;;;;21.60;98180.00;;;;5096460;28;20271;-78
2022/06/07 11:17:21;;;;;;;0.50;0.50;;;;;21.60;98185.00;;;;5096403;28;20230;-77
2022/06/07 11:19:48;;;;;;;0.90;0.90;;;;;21.40;98190.00;;;;5096389;28;20254;-75
2022/06/07 11:22:19;;;;;;;0.68;0.68;;;;;21.20;98181.00;;;;5096357;28;20222;-76
2022/06/07 11:25:00;;;;;;;0.40;0.40;;;;;21.20;98184.00;;;;5096286;28;20187;-74
2022/06/07 11:27:30;;;;;;;0.50;0.50;;;;;21.20;98179.00;;;;5096660;28;20310;-77
2022/06/07 11:30:24;;;;;;;0.52;0.52;;;;;21.20;98182.00;;;;5096245;28;20286;-73
2022/06/07 11:32:55;;;;;;;0.63;0.63;;;;;21.10;98173.00;;;;5060980;28;20238;-75
2022/06/07 11:35:47;;;;;;;0.47;0.47;;;;;21.30;98176.00;;;;5096195;28;20210;-74
2022/06/07 11:38:28;;;;;;;0.40;0.40;;;;;21.40;98174.00;;;;5078258;28;20215;-75
2022/06/07 11:44:00;;;;;;;0.60;0.60;;;;;21.30;98152.00;;;;5095925;28;20230;-74
2022/06/07 11:46:38;;;;;;;0.40;0.40;;;;;22.00;98139.00;;;;5095947;28;20206;-73
2022/06/07 11:49:33;;;;;;;0.40;0.40;;;;;22.20;98159.00;;;;5078145;28;20232;-74
2022/06/07 11:52:23;;;;;;;0.50;0.50;;;;;22.20;98151.00;;;;5078294;28;20305;-73
2022/06/07 11:54:54;;;;;;;0.60;0.60;;;;;21.90;98156.00;;;;5092880;28;20265;-73
2022/06/07 11:57:28;;;;;;;0.50;0.50;;;;;21.80;98147.00;;;;5095708;28;20220;-73
2022/06/07 12:00:00;;;;;;;4.47;0.93;;;;;21.60;98146.00;;;;5077839;28;20582;-75
2022/06/07 12:02:31;;;;;;;0.40;0.40;;;;;21.60;98146.00;;;;5095625;28;20210;-74
2022/06/07 12:05:08;;;;;;;0.40;0.40;;;;;21.50;98153.00;;;;5095740;28;20702;-73
2022/06/07 12:07:45;;;;;;;0.70;0.70;;;;;21.40;98145.00;;;;5095552;28;20258;-76
2022/06/07 12:10:34;;;;;;;0.73;0.73;;;;;21.30;98145.00;;;;5095556;28;20195;-75
2022/06/07 12:13:03;;;;;;;0.60;0.60;;;;;21.30;98148.00;;;;5094034;28;20708;-76
2022/06/07 12:15:41;;;;;;;0.40;0.40;;;;;21.30;98145.00;;;;5095448;28;20191;-75
2022/06/07 12:18:18;;;;;;;0.50;0.50;;;;;21.50;98142.00;;;;5094869;28;20191;-73
2022/06/07 12:20:56;;;;;;;0.50;0.50;;;;;21.60;98132.00;;;;5095099;28;20187;-76
2022/06/07 12:23:28;;;;;;;0.40;0.40;;;;;21.80;98131.00;;;;5095326;28;20527;-74
2022/06/07 12:26:00;;;;;;;0.60;0.60;;;;;21.80;98132.00;;;;5095348;28;20229;-75
2022/06/07 12:28:32;;;;;;;0.55;0.55;;;;;21.90;98126.00;;;;5095280;28;20198;-72
2022/06/07 12:31:11;;;;;;;0.30;0.30;;;;;22.10;98126.00;;;;5095030;28;20229;-73
2022/06/07 12:33:37;;;;;;;0.43;0.43;;;;;22.50;98102.00;;;;5077428;28;20203;-74
2022/06/07 12:36:14;;;;;;;0.55;0.55;;;;;23.20;98124.00;;;;5095008;28;20271;-74
2022/06/07 12:38:46;;;;;;;0.52;0.52;;;;;23.20;98129.00;;;;5095025;28;20243;-73
2022/06/07 12:41:17;;;;;;;0.40;0.40;;;;;23.10;98108.00;;;;5094916;28;20217;-73
2022/06/07 12:43:47;;;;;;;0.50;0.50;;;;;23.00;98122.00;;;;5095197;28;20249;-74
2022/06/07 12:46:21;;;;;;;0.70;0.70;;;;;22.90;98118.00;;;;5095109;28;20214;-75